AD8766 - VCP/EZE

Seção principal do AeroFórum para troca de informações.

Moderador: Moderadores

Regras do fórum
As regras do fórum estão disponíveis CLICANDO AQUI.

AD8766 - VCP/EZE

Mensagempor Jet Airways » Sáb Out 12, 2019 11:47

Neste momento, o voo AD 8766 efetuando a rota VCP/EZE, está retornando a VCP, após 2 horas de voo.
A320-251N PR-YRT.

Alguém sabe o motivo?
Abraços,
Jet Airways

"Somente os que voam podem entender com clareza porque os pássaros cantam."
Avatar do usuário
Jet Airways
CMTE.
CMTE.
 
Mensagens: 863
Registrado em: Qui Abr 01, 2010 23:44
Localização: São Paulo - SP

Re: AD8766 - VCP/EZE

Mensagempor Becker » Sáb Out 12, 2019 15:40

Jet Airways escreveu:Neste momento, o voo AD 8766 efetuando a rota VCP/EZE, está retornando a VCP, após 2 horas de voo.
A320-251N PR-YRT.

Alguém sabe o motivo?
METEORO em EZE....
Becker
PC
PC
 
Mensagens: 292
Registrado em: Qua Jul 23, 2008 21:17
Localização: Canoas- R S

Re: AD8766 - VCP/EZE

Mensagempor Marinho » Dom Out 13, 2019 22:10

SPECI SAEZ 121441Z 05021G33KT 2000 +TSRA SCT003 BKN032 FEW040CB 17/17 Q1006 NOSIG=
SPECI SAEZ 121514Z 07016G28KT 9000 -TSRA FEW027 FEW040CB OVC100 18/18 Q1006 NOSIG=

SPECI SABE 121509Z 09015KT 6000 -TSRA BKN036 BKN050CB 18/17 Q1007 BECMG 9999 BKN030 OVC090=
SPECI SABE 121553Z 07015KT 1000 R13/P2000 +TSRA FEW006 BKN050CB 18/17 Q1007 NOSIG=

Mais ou menos no horário de chegada o aeródromo não estaria fechado. SABE também não.
GTE2 - Segundão, 24 horas no ar!
Marinho
 
Mensagens: 9
Registrado em: Dom Ago 25, 2019 11:30
Localização: Guarulhos-SP


Voltar para AEROFÓRUM

Quem está online

Usuários navegando neste fórum: Nenhum usuário registrado e 1 visitante